sensor_id;sensor_type;location;lat;lon;timestamp;P1;durP1;ratioP1;P2;durP2;ratioP2
28627;SDS011;15815;46.760;19.604;2024-03-23T00:54:23;25.65;;;13.23;;
28627;SDS011;15815;46.760;19.604;2024-03-23T00:56:49;27.15;;;12.88;;
28627;SDS011;15815;46.760;19.604;2024-03-23T00:59:14;29.45;;;13.30;;
28627;SDS011;15815;46.760;19.604;2024-03-23T01:01:40;28.00;;;13.50;;
28627;SDS011;15815;46.760;19.604;2024-03-23T01:04:05;25.63;;;13.43;;
28627;SDS011;15815;46.760;19.604;2024-03-23T01:06:30;25.27;;;13.48;;
28627;SDS011;15815;46.760;19.604;2024-03-23T01:08:56;24.63;;;13.43;;
28627;SDS011;15815;46.760;19.604;2024-03-23T01:11:21;27.40;;;11.98;;
28627;SDS011;15815;46.760;19.604;2024-03-23T01:13:47;30.45;;;14.60;;
28627;SDS011;15815;46.760;19.604;2024-03-23T01:16:13;28.13;;;14.95;;
28627;SDS011;15815;46.760;19.604;2024-03-23T01:18:38;28.63;;;13.75;;
28627;SDS011;15815;46.760;19.604;2024-03-23T01:21:04;32.42;;;15.25;;
28627;SDS011;15815;46.760;19.604;2024-03-23T01:23:35;28.42;;;14.18;;
28627;SDS011;15815;46.760;19.604;2024-03-23T01:28:26;27.70;;;13.52;;
28627;SDS011;15815;46.760;19.604;2024-03-23T01:31:06;24.52;;;13.07;;
28627;SDS011;15815;46.760;19.604;2024-03-23T01:33:32;24.20;;;13.40;;
28627;SDS011;15815;46.760;19.604;2024-03-23T01:35:57;27.55;;;13.38;;
28627;SDS011;15815;46.760;19.604;2024-03-23T01:38:22;24.95;;;12.80;;
28627;SDS011;15815;46.760;19.604;2024-03-23T01:40:48;26.15;;;13.38;;
28627;SDS011;15815;46.760;19.604;2024-03-23T01:43:13;21.23;;;12.13;;
28627;SDS011;15815;46.760;19.604;2024-03-23T01:45:40;26.23;;;13.20;;
28627;SDS011;15815;46.760;19.604;2024-03-23T01:48:06;25.60;;;14.00;;
28627;SDS011;15815;46.760;19.604;2024-03-23T01:50:32;25.15;;;13.82;;
28627;SDS011;15815;46.760;19.604;2024-03-23T01:53:00;26.42;;;14.10;;
28627;SDS011;15815;46.760;19.604;2024-03-23T01:55:28;27.95;;;13.50;;
28627;SDS011;15815;46.760;19.604;2024-03-23T01:57:56;26.70;;;15.45;;
28627;SDS011;15815;46.760;19.604;2024-03-23T02:02:50;25.13;;;14.07;;
28627;SDS011;15815;46.760;19.604;2024-03-23T02:07:45;27.38;;;14.45;;
28627;SDS011;15815;46.760;19.604;2024-03-23T02:10:11;34.28;;;15.68;;
28627;SDS011;15815;46.760;19.604;2024-03-23T02:12:37;33.85;;;16.17;;
28627;SDS011;15815;46.760;19.604;2024-03-23T02:15:05;29.90;;;16.08;;
28627;SDS011;15815;46.760;19.604;2024-03-23T02:17:32;35.83;;;16.85;;
28627;SDS011;15815;46.760;19.604;2024-03-23T02:19:59;35.38;;;15.75;;
28627;SDS011;15815;46.760;19.604;2024-03-23T02:22:39;32.47;;;15.68;;
28627;SDS011;15815;46.760;19.604;2024-03-23T02:25:05;34.20;;;17.13;;
28627;SDS011;15815;46.760;19.604;2024-03-23T02:27:33;31.95;;;16.05;;
28627;SDS011;15815;46.760;19.604;2024-03-23T02:32:43;35.22;;;18.25;;
28627;SDS011;15815;46.760;19.604;2024-03-23T02:35:09;40.47;;;19.30;;
28627;SDS011;15815;46.760;19.604;2024-03-23T02:37:34;39.38;;;19.27;;
28627;SDS011;15815;46.760;19.604;2024-03-23T02:40:00;31.63;;;16.63;;
28627;SDS011;15815;46.760;19.604;2024-03-23T02:42:25;29.00;;;16.35;;
28627;SDS011;15815;46.760;19.604;2024-03-23T02:44:52;34.42;;;16.42;;
28627;SDS011;15815;46.760;19.604;2024-03-23T02:47:17;29.30;;;16.17;;
28627;SDS011;15815;46.760;19.604;2024-03-23T02:49:43;30.83;;;17.55;;
28627;SDS011;15815;46.760;19.604;2024-03-23T02:54:37;36.65;;;15.75;;
28627;SDS011;15815;46.760;19.604;2024-03-23T02:57:03;31.70;;;15.75;;
28627;SDS011;15815;46.760;19.604;2024-03-23T02:59:32;24.58;;;15.20;;
28627;SDS011;15815;46.760;19.604;2024-03-23T03:01:58;31.90;;;16.58;;
28627;SDS011;15815;46.760;19.604;2024-03-23T03:04:23;30.05;;;16.27;;
28627;SDS011;15815;46.760;19.604;2024-03-23T03:06:53;28.35;;;16.02;;
28627;SDS011;15815;46.760;19.604;2024-03-23T03:09:18;33.03;;;16.15;;
28627;SDS011;15815;46.760;19.604;2024-03-23T03:11:44;32.65;;;16.45;;
28627;SDS011;15815;46.760;19.604;2024-03-23T03:14:09;29.30;;;16.40;;
28627;SDS011;15815;46.760;19.604;2024-03-23T03:16:35;33.28;;;17.33;;
28627;SDS011;15815;46.760;19.604;2024-03-23T03:19:00;34.60;;;18.15;;
28627;SDS011;15815;46.760;19.604;2024-03-23T03:21:29;33.03;;;16.98;;
28627;SDS011;15815;46.760;19.604;2024-03-23T03:23:54;33.22;;;16.95;;
28627;SDS011;15815;46.760;19.604;2024-03-23T03:26:20;37.00;;;18.63;;
28627;SDS011;15815;46.760;19.604;2024-03-23T03:28:54;34.83;;;16.80;;
28627;SDS011;15815;46.760;19.604;2024-03-23T03:31:19;31.17;;;16.77;;
28627;SDS011;15815;46.760;19.604;2024-03-23T03:33:45;29.30;;;16.85;;
28627;SDS011;15815;46.760;19.604;2024-03-23T03:36:11;30.92;;;15.93;;
28627;SDS011;15815;46.760;19.604;2024-03-23T03:38:37;32.63;;;16.60;;
28627;SDS011;15815;46.760;19.604;2024-03-23T03:41:02;27.08;;;14.93;;
28627;SDS011;15815;46.760;19.604;2024-03-23T03:43:29;33.08;;;17.48;;
28627;SDS011;15815;46.760;19.604;2024-03-23T03:45:56;32.30;;;17.98;;
28627;SDS011;15815;46.760;19.604;2024-03-23T03:48:23;34.65;;;16.67;;
28627;SDS011;15815;46.760;19.604;2024-03-23T03:50:54;31.30;;;16.48;;
28627;SDS011;15815;46.760;19.604;2024-03-23T03:53:20;37.85;;;18.23;;
28627;SDS011;15815;46.760;19.604;2024-03-23T03:55:45;35.28;;;18.77;;
28627;SDS011;15815;46.760;19.604;2024-03-23T03:58:14;37.97;;;18.52;;
28627;SDS011;15815;46.760;19.604;2024-03-23T04:00:40;35.22;;;18.80;;
28627;SDS011;15815;46.760;19.604;2024-03-23T04:03:05;37.42;;;18.08;;
28627;SDS011;15815;46.760;19.604;2024-03-23T04:05:35;42.65;;;19.27;;
28627;SDS011;15815;46.760;19.604;2024-03-23T04:08:00;35.50;;;18.63;;
28627;SDS011;15815;46.760;19.604;2024-03-23T04:10:26;40.38;;;20.50;;
28627;SDS011;15815;46.760;19.604;2024-03-23T04:13:02;37.60;;;19.77;;
28627;SDS011;15815;46.760;19.604;2024-03-23T04:15:27;39.28;;;19.58;;
28627;SDS011;15815;46.760;19.604;2024-03-23T04:17:53;36.67;;;19.33;;
28627;SDS011;15815;46.760;19.604;2024-03-23T04:20:20;33.22;;;17.73;;
28627;SDS011;15815;46.760;19.604;2024-03-23T04:22:46;32.15;;;17.50;;
28627;SDS011;15815;46.760;19.604;2024-03-23T04:25:12;36.90;;;17.30;;
28627;SDS011;15815;46.760;19.604;2024-03-23T04:27:42;36.13;;;17.00;;
28627;SDS011;15815;46.760;19.604;2024-03-23T04:30:09;36.25;;;18.23;;
28627;SDS011;15815;46.760;19.604;2024-03-23T04:32:35;30.35;;;16.60;;
28627;SDS011;15815;46.760;19.604;2024-03-23T04:35:08;27.27;;;15.75;;
28627;SDS011;15815;46.760;19.604;2024-03-23T04:37:34;32.60;;;17.35;;
28627;SDS011;15815;46.760;19.604;2024-03-23T04:42:45;56.60;;;28.83;;
28627;SDS011;15815;46.760;19.604;2024-03-23T04:45:17;50.15;;;25.40;;
28627;SDS011;15815;46.760;19.604;2024-03-23T04:47:42;46.47;;;22.05;;
28627;SDS011;15815;46.760;19.604;2024-03-23T04:50:08;40.47;;;20.77;;
28627;SDS011;15815;46.760;19.604;2024-03-23T04:52:35;42.70;;;18.80;;
28627;SDS011;15815;46.760;19.604;2024-03-23T04:55:00;39.05;;;20.25;;
28627;SDS011;15815;46.760;19.604;2024-03-23T04:59:55;34.33;;;17.65;;
28627;SDS011;15815;46.760;19.604;2024-03-23T05:02:23;34.78;;;18.23;;
28627;SDS011;15815;46.760;19.604;2024-03-23T05:04:48;35.03;;;18.05;;
28627;SDS011;15815;46.760;19.604;2024-03-23T05:07:14;44.03;;;22.63;;
28627;SDS011;15815;46.760;19.604;2024-03-23T05:09:39;34.72;;;18.58;;
28627;SDS011;15815;46.760;19.604;2024-03-23T05:12:06;33.08;;;18.83;;
28627;SDS011;15815;46.760;19.604;2024-03-23T05:14:31;30.27;;;17.48;;
28627;SDS011;15815;46.760;19.604;2024-03-23T05:16:57;30.73;;;17.67;;
28627;SDS011;15815;46.760;19.604;2024-03-23T05:19:25;30.70;;;18.63;;
28627;SDS011;15815;46.760;19.604;2024-03-23T05:21:50;33.05;;;17.23;;
28627;SDS011;15815;46.760;19.604;2024-03-23T05:24:16;33.30;;;17.63;;
28627;SDS011;15815;46.760;19.604;2024-03-23T05:26:45;28.10;;;16.55;;
28627;SDS011;15815;46.760;19.604;2024-03-23T05:29:10;27.23;;;15.93;;
28627;SDS011;15815;46.760;19.604;2024-03-23T05:31:36;29.38;;;17.23;;
28627;SDS011;15815;46.760;19.604;2024-03-23T05:34:03;30.98;;;16.17;;
28627;SDS011;15815;46.760;19.604;2024-03-23T05:36:29;36.65;;;19.35;;
28627;SDS011;15815;46.760;19.604;2024-03-23T05:38:55;29.98;;;17.70;;
28627;SDS011;15815;46.760;19.604;2024-03-23T05:41:21;32.95;;;15.63;;
28627;SDS011;15815;46.760;19.604;2024-03-23T05:43:46;25.42;;;14.77;;
28627;SDS011;15815;46.760;19.604;2024-03-23T05:46:12;25.67;;;14.52;;
28627;SDS011;15815;46.760;19.604;2024-03-23T05:48:37;25.10;;;13.85;;
28627;SDS011;15815;46.760;19.604;2024-03-23T05:51:05;28.42;;;14.93;;
28627;SDS011;15815;46.760;19.604;2024-03-23T05:53:31;21.35;;;12.95;;
28627;SDS011;15815;46.760;19.604;2024-03-23T05:56:00;26.27;;;13.60;;
28627;SDS011;15815;46.760;19.604;2024-03-23T05:58:27;21.23;;;12.97;;
28627;SDS011;15815;46.760;19.604;2024-03-23T06:00:57;20.05;;;12.30;;
28627;SDS011;15815;46.760;19.604;2024-03-23T06:03:25;18.80;;;12.27;;
28627;SDS011;15815;46.760;19.604;2024-03-23T06:05:51;19.27;;;11.57;;
28627;SDS011;15815;46.760;19.604;2024-03-23T06:08:17;25.13;;;12.43;;
28627;SDS011;15815;46.760;19.604;2024-03-23T06:10:46;20.58;;;13.02;;
28627;SDS011;15815;46.760;19.604;2024-03-23T06:13:12;21.33;;;12.50;;
28627;SDS011;15815;46.760;19.604;2024-03-23T06:15:38;29.08;;;12.52;;
28627;SDS011;15815;46.760;19.604;2024-03-23T06:18:21;28.05;;;13.50;;
28627;SDS011;15815;46.760;19.604;2024-03-23T06:20:46;23.27;;;12.75;;
28627;SDS011;15815;46.760;19.604;2024-03-23T06:23:13;25.77;;;14.65;;
28627;SDS011;15815;46.760;19.604;2024-03-23T06:25:38;24.95;;;13.07;;
28627;SDS011;15815;46.760;19.604;2024-03-23T06:28:06;20.60;;;12.48;;
28627;SDS011;15815;46.760;19.604;2024-03-23T06:30:31;22.73;;;12.00;;
28627;SDS011;15815;46.760;19.604;2024-03-23T06:32:59;20.70;;;12.20;;
28627;SDS011;15815;46.760;19.604;2024-03-23T06:35:25;24.35;;;11.85;;
28627;SDS011;15815;46.760;19.604;2024-03-23T06:37:52;19.58;;;11.85;;
28627;SDS011;15815;46.760;19.604;2024-03-23T06:40:18;18.02;;;11.40;;
28627;SDS011;15815;46.760;19.604;2024-03-23T06:42:44;22.45;;;12.10;;
28627;SDS011;15815;46.760;19.604;2024-03-23T06:45:10;17.90;;;10.50;;
28627;SDS011;15815;46.760;19.604;2024-03-23T06:47:36;16.15;;;10.05;;
28627;SDS011;15815;46.760;19.604;2024-03-23T06:50:03;16.90;;;10.10;;
28627;SDS011;15815;46.760;19.604;2024-03-23T06:52:29;16.08;;;9.43;;
28627;SDS011;15815;46.760;19.604;2024-03-23T06:54:55;14.52;;;9.88;;
28627;SDS011;15815;46.760;19.604;2024-03-23T06:57:21;17.27;;;10.77;;
28627;SDS011;15815;46.760;19.604;2024-03-23T07:02:17;19.87;;;11.63;;
28627;SDS011;15815;46.760;19.604;2024-03-23T07:04:44;9.75;;;7.93;;
28627;SDS011;15815;46.760;19.604;2024-03-23T07:07:10;12.48;;;8.43;;
28627;SDS011;15815;46.760;19.604;2024-03-23T07:09:35;13.93;;;8.55;;
28627;SDS011;15815;46.760;19.604;2024-03-23T07:14:30;14.85;;;7.80;;
28627;SDS011;15815;46.760;19.604;2024-03-23T07:16:55;13.07;;;8.80;;
28627;SDS011;15815;46.760;19.604;2024-03-23T07:19:23;12.95;;;8.25;;
28627;SDS011;15815;46.760;19.604;2024-03-23T07:21:48;12.50;;;7.88;;
28627;SDS011;15815;46.760;19.604;2024-03-23T07:24:14;12.65;;;8.65;;
28627;SDS011;15815;46.760;19.604;2024-03-23T07:26:41;17.45;;;7.88;;
28627;SDS011;15815;46.760;19.604;2024-03-23T07:29:06;12.68;;;8.13;;
28627;SDS011;15815;46.760;19.604;2024-03-23T07:34:00;12.15;;;7.95;;
28627;SDS011;15815;46.760;19.604;2024-03-23T07:36:27;9.30;;;6.78;;
28627;SDS011;15815;46.760;19.604;2024-03-23T07:38:52;11.20;;;7.03;;
28627;SDS011;15815;46.760;19.604;2024-03-23T07:41:21;9.07;;;6.78;;
28627;SDS011;15815;46.760;19.604;2024-03-23T07:43:47;10.40;;;7.15;;
28627;SDS011;15815;46.760;19.604;2024-03-23T07:46:15;10.63;;;6.70;;
28627;SDS011;15815;46.760;19.604;2024-03-23T07:48:41;8.80;;;6.18;;
28627;SDS011;15815;46.760;19.604;2024-03-23T07:51:17;9.52;;;6.80;;
28627;SDS011;15815;46.760;19.604;2024-03-23T07:53:45;10.32;;;6.53;;
28627;SDS011;15815;46.760;19.604;2024-03-23T07:56:11;12.30;;;5.78;;
28627;SDS011;15815;46.760;19.604;2024-03-23T07:58:38;7.85;;;6.05;;
28627;SDS011;15815;46.760;19.604;2024-03-23T08:01:04;8.25;;;5.55;;
28627;SDS011;15815;46.760;19.604;2024-03-23T08:03:34;7.70;;;6.15;;
28627;SDS011;15815;46.760;19.604;2024-03-23T08:08:44;10.85;;;5.50;;
28627;SDS011;15815;46.760;19.604;2024-03-23T08:11:11;9.85;;;5.93;;
28627;SDS011;15815;46.760;19.604;2024-03-23T08:13:49;8.23;;;5.45;;
28627;SDS011;15815;46.760;19.604;2024-03-23T08:16:15;7.57;;;5.45;;
28627;SDS011;15815;46.760;19.604;2024-03-23T08:21:11;10.57;;;5.30;;
28627;SDS011;15815;46.760;19.604;2024-03-23T08:23:38;6.50;;;5.22;;
28627;SDS011;15815;46.760;19.604;2024-03-23T08:26:04;8.23;;;5.40;;
28627;SDS011;15815;46.760;19.604;2024-03-23T08:28:31;6.28;;;4.95;;
28627;SDS011;15815;46.760;19.604;2024-03-23T08:31:00;9.88;;;5.60;;
28627;SDS011;15815;46.760;19.604;2024-03-23T08:33:26;7.63;;;5.15;;
28627;SDS011;15815;46.760;19.604;2024-03-23T08:35:53;6.28;;;4.72;;
28627;SDS011;15815;46.760;19.604;2024-03-23T08:38:19;7.28;;;4.88;;
28627;SDS011;15815;46.760;19.604;2024-03-23T08:40:45;7.82;;;5.03;;
28627;SDS011;15815;46.760;19.604;2024-03-23T08:43:10;9.50;;;4.20;;
28627;SDS011;15815;46.760;19.604;2024-03-23T08:45:37;6.72;;;4.30;;
28627;SDS011;15815;46.760;19.604;2024-03-23T08:48:02;7.90;;;4.40;;
28627;SDS011;15815;46.760;19.604;2024-03-23T08:50:28;6.90;;;4.05;;
28627;SDS011;15815;46.760;19.604;2024-03-23T08:52:54;5.72;;;4.25;;
28627;SDS011;15815;46.760;19.604;2024-03-23T08:55:22;6.22;;;4.03;;
28627;SDS011;15815;46.760;19.604;2024-03-23T09:00:16;6.07;;;4.15;;
28627;SDS011;15815;46.760;19.604;2024-03-23T09:02:50;8.80;;;3.88;;
28627;SDS011;15815;46.760;19.604;2024-03-23T09:05:15;6.90;;;3.92;;
28627;SDS011;15815;46.760;19.604;2024-03-23T09:07:41;4.85;;;3.78;;
28627;SDS011;15815;46.760;19.604;2024-03-23T09:12:43;5.85;;;4.20;;
28627;SDS011;15815;46.760;19.604;2024-03-23T09:15:08;6.07;;;3.83;;
28627;SDS011;15815;46.760;19.604;2024-03-23T09:17:45;6.88;;;3.40;;
28627;SDS011;15815;46.760;19.604;2024-03-23T09:20:10;5.63;;;3.72;;
28627;SDS011;15815;46.760;19.604;2024-03-23T09:22:37;5.93;;;4.35;;
28627;SDS011;15815;46.760;19.604;2024-03-23T09:25:03;5.10;;;4.25;;
28627;SDS011;15815;46.760;19.604;2024-03-23T09:27:28;21.55;;;5.28;;
28627;SDS011;15815;46.760;19.604;2024-03-23T09:29:54;5.40;;;3.95;;
28627;SDS011;15815;46.760;19.604;2024-03-23T09:32:19;5.32;;;4.20;;
28627;SDS011;15815;46.760;19.604;2024-03-23T09:34:45;5.53;;;3.97;;
28627;SDS011;15815;46.760;19.604;2024-03-23T09:37:14;6.40;;;3.90;;
28627;SDS011;15815;46.760;19.604;2024-03-23T09:39:40;5.53;;;3.47;;
28627;SDS011;15815;46.760;19.604;2024-03-23T09:42:15;8.27;;;3.78;;
28627;SDS011;15815;46.760;19.604;2024-03-23T09:44:40;5.97;;;3.63;;
28627;SDS011;15815;46.760;19.604;2024-03-23T09:47:07;6.93;;;3.75;;
28627;SDS011;15815;46.760;19.604;2024-03-23T09:49:33;6.22;;;4.07;;
28627;SDS011;15815;46.760;19.604;2024-03-23T09:51:59;5.07;;;3.55;;
28627;SDS011;15815;46.760;19.604;2024-03-23T09:54:25;5.05;;;3.03;;
28627;SDS011;15815;46.760;19.604;2024-03-23T09:56:50;9.77;;;3.78;;
28627;SDS011;15815;46.760;19.604;2024-03-23T09:59:16;3.72;;;2.88;;
28627;SDS011;15815;46.760;19.604;2024-03-23T10:01:41;3.03;;;2.67;;
28627;SDS011;15815;46.760;19.604;2024-03-23T10:04:08;4.30;;;2.90;;
28627;SDS011;15815;46.760;19.604;2024-03-23T10:06:33;5.72;;;3.03;;
28627;SDS011;15815;46.760;19.604;2024-03-23T10:08:59;4.07;;;2.58;;
28627;SDS011;15815;46.760;19.604;2024-03-23T10:11:25;5.50;;;2.70;;
28627;SDS011;15815;46.760;19.604;2024-03-23T10:13:50;6.35;;;3.33;;
28627;SDS011;15815;46.760;19.604;2024-03-23T10:16:22;5.05;;;3.38;;
28627;SDS011;15815;46.760;19.604;2024-03-23T10:18:49;3.03;;;2.53;;
28627;SDS011;15815;46.760;19.604;2024-03-23T10:21:15;4.78;;;2.50;;
28627;SDS011;15815;46.760;19.604;2024-03-23T10:23:42;8.30;;;2.80;;
28627;SDS011;15815;46.760;19.604;2024-03-23T10:26:22;4.97;;;2.60;;
28627;SDS011;15815;46.760;19.604;2024-03-23T10:31:18;4.18;;;2.65;;
28627;SDS011;15815;46.760;19.604;2024-03-23T10:36:29;7.50;;;2.83;;
28627;SDS011;15815;46.760;19.604;2024-03-23T10:38:55;5.03;;;2.72;;
28627;SDS011;15815;46.760;19.604;2024-03-23T10:41:22;3.85;;;2.40;;
28627;SDS011;15815;46.760;19.604;2024-03-23T10:43:57;5.65;;;2.30;;
28627;SDS011;15815;46.760;19.604;2024-03-23T10:46:23;7.40;;;2.55;;
28627;SDS011;15815;46.760;19.604;2024-03-23T10:48:51;4.45;;;2.45;;
28627;SDS011;15815;46.760;19.604;2024-03-23T10:51:16;4.70;;;2.90;;
28627;SDS011;15815;46.760;19.604;2024-03-23T10:53:49;2.97;;;2.22;;
28627;SDS011;15815;46.760;19.604;2024-03-23T10:56:17;4.03;;;2.53;;
28627;SDS011;15815;46.760;19.604;2024-03-23T10:58:44;4.25;;;2.42;;
28627;SDS011;15815;46.760;19.604;2024-03-23T11:04:36;2.95;;;2.15;;
28627;SDS011;15815;46.760;19.604;2024-03-23T11:07:03;4.72;;;2.33;;
28627;SDS011;15815;46.760;19.604;2024-03-23T11:09:55;8.60;;;3.15;;
28627;SDS011;15815;46.760;19.604;2024-03-23T11:14:47;5.55;;;2.67;;
28627;SDS011;15815;46.760;19.604;2024-03-23T11:17:12;6.68;;;3.03;;
28627;SDS011;15815;46.760;19.604;2024-03-23T11:19:44;2.97;;;2.35;;
28627;SDS011;15815;46.760;19.604;2024-03-23T11:22:09;3.50;;;2.58;;
28627;SDS011;15815;46.760;19.604;2024-03-23T11:24:35;4.50;;;2.42;;
28627;SDS011;15815;46.760;19.604;2024-03-23T11:27:00;4.18;;;2.45;;
28627;SDS011;15815;46.760;19.604;2024-03-23T11:29:26;4.40;;;2.90;;
28627;SDS011;15815;46.760;19.604;2024-03-23T11:31:52;5.05;;;2.92;;
28627;SDS011;15815;46.760;19.604;2024-03-23T11:34:19;4.78;;;2.92;;
28627;SDS011;15815;46.760;19.604;2024-03-23T11:36:45;5.05;;;2.72;;
28627;SDS011;15815;46.760;19.604;2024-03-23T11:41:50;6.05;;;2.55;;
28627;SDS011;15815;46.760;19.604;2024-03-23T11:44:21;5.47;;;2.35;;
28627;SDS011;15815;46.760;19.604;2024-03-23T11:46:47;6.27;;;2.10;;
28627;SDS011;15815;46.760;19.604;2024-03-23T11:49:23;6.32;;;2.72;;
28627;SDS011;15815;46.760;19.604;2024-03-23T11:51:53;6.85;;;2.60;;
28627;SDS011;15815;46.760;19.604;2024-03-23T11:54:25;3.17;;;2.30;;
28627;SDS011;15815;46.760;19.604;2024-03-23T11:57:09;4.60;;;2.58;;
28627;SDS011;15815;46.760;19.604;2024-03-23T11:59:35;7.55;;;2.72;;
28627;SDS011;15815;46.760;19.604;2024-03-23T12:02:07;3.40;;;2.03;;
28627;SDS011;15815;46.760;19.604;2024-03-23T12:04:34;5.70;;;2.85;;
28627;SDS011;15815;46.760;19.604;2024-03-23T12:07:15;6.45;;;2.85;;
28627;SDS011;15815;46.760;19.604;2024-03-23T12:09:45;5.40;;;2.50;;
28627;SDS011;15815;46.760;19.604;2024-03-23T12:12:15;3.28;;;2.42;;
28627;SDS011;15815;46.760;19.604;2024-03-23T12:14:43;3.13;;;2.40;;
28627;SDS011;15815;46.760;19.604;2024-03-23T12:17:12;3.95;;;2.33;;
28627;SDS011;15815;46.760;19.604;2024-03-23T12:19:39;3.60;;;2.05;;
28627;SDS011;15815;46.760;19.604;2024-03-23T12:22:05;3.05;;;1.92;;
28627;SDS011;15815;46.760;19.604;2024-03-23T12:24:31;3.58;;;1.60;;
28627;SDS011;15815;46.760;19.604;2024-03-23T12:29:36;3.05;;;1.52;;
28627;SDS011;15815;46.760;19.604;2024-03-23T12:34:50;3.85;;;1.88;;
28627;SDS011;15815;46.760;19.604;2024-03-23T12:40:15;2.70;;;1.83;;
28627;SDS011;15815;46.760;19.604;2024-03-23T12:42:41;4.78;;;1.80;;
28627;SDS011;15815;46.760;19.604;2024-03-23T12:45:07;6.30;;;1.60;;
28627;SDS011;15815;46.760;19.604;2024-03-23T12:47:33;3.28;;;2.03;;
28627;SDS011;15815;46.760;19.604;2024-03-23T12:49:58;4.22;;;1.83;;
28627;SDS011;15815;46.760;19.604;2024-03-23T12:55:31;4.47;;;2.50;;
28627;SDS011;15815;46.760;19.604;2024-03-23T12:57:57;4.30;;;2.80;;
28627;SDS011;15815;46.760;19.604;2024-03-23T13:00:22;5.00;;;2.10;;
28627;SDS011;15815;46.760;19.604;2024-03-23T13:02:55;4.35;;;2.30;;
28627;SDS011;15815;46.760;19.604;2024-03-23T13:05:22;4.68;;;2.28;;
28627;SDS011;15815;46.760;19.604;2024-03-23T13:07:47;4.57;;;1.90;;
28627;SDS011;15815;46.760;19.604;2024-03-23T13:10:15;2.33;;;1.70;;
28627;SDS011;15815;46.760;19.604;2024-03-23T13:12:43;2.75;;;1.98;;
28627;SDS011;15815;46.760;19.604;2024-03-23T13:15:09;3.10;;;1.77;;
28627;SDS011;15815;46.760;19.604;2024-03-23T13:17:34;2.47;;;1.52;;
28627;SDS011;15815;46.760;19.604;2024-03-23T13:20:00;3.65;;;2.10;;
28627;SDS011;15815;46.760;19.604;2024-03-23T13:22:25;2.53;;;1.75;;
28627;SDS011;15815;46.760;19.604;2024-03-23T13:24:51;1.80;;;1.60;;
28627;SDS011;15815;46.760;19.604;2024-03-23T13:27:16;2.75;;;1.60;;
28627;SDS011;15815;46.760;19.604;2024-03-23T13:29:42;1.52;;;1.42;;
28627;SDS011;15815;46.760;19.604;2024-03-23T13:32:07;3.63;;;1.80;;
28627;SDS011;15815;46.760;19.604;2024-03-23T13:34:33;4.93;;;1.90;;
28627;SDS011;15815;46.760;19.604;2024-03-23T13:36:59;7.30;;;1.95;;
28627;SDS011;15815;46.760;19.604;2024-03-23T13:39:25;3.28;;;2.20;;
28627;SDS011;15815;46.760;19.604;2024-03-23T13:41:53;2.60;;;1.58;;
28627;SDS011;15815;46.760;19.604;2024-03-23T13:46:58;1.95;;;1.55;;
28627;SDS011;15815;46.760;19.604;2024-03-23T13:49:24;2.28;;;1.65;;
28627;SDS011;15815;46.760;19.604;2024-03-23T13:52:10;3.22;;;2.30;;
28627;SDS011;15815;46.760;19.604;2024-03-23T13:54:35;3.58;;;2.20;;
28627;SDS011;15815;46.760;19.604;2024-03-23T13:57:01;3.85;;;2.25;;
28627;SDS011;15815;46.760;19.604;2024-03-23T13:59:33;3.45;;;2.28;;
28627;SDS011;15815;46.760;19.604;2024-03-23T14:01:59;4.45;;;2.53;;
28627;SDS011;15815;46.760;19.604;2024-03-23T14:04:24;3.63;;;1.92;;
28627;SDS011;15815;46.760;19.604;2024-03-23T14:10:04;2.95;;;2.00;;
28627;SDS011;15815;46.760;19.604;2024-03-23T14:12:30;3.28;;;2.38;;
28627;SDS011;15815;46.760;19.604;2024-03-23T14:20:12;2.78;;;2.00;;
28627;SDS011;15815;46.760;19.604;2024-03-23T14:22:45;4.35;;;2.00;;
28627;SDS011;15815;46.760;19.604;2024-03-23T14:25:10;2.80;;;2.10;;
28627;SDS011;15815;46.760;19.604;2024-03-23T14:27:36;3.88;;;2.20;;
28627;SDS011;15815;46.760;19.604;2024-03-23T14:30:01;2.20;;;1.60;;
28627;SDS011;15815;46.760;19.604;2024-03-23T14:32:37;2.55;;;2.20;;
28627;SDS011;15815;46.760;19.604;2024-03-23T14:35:03;4.35;;;1.88;;
28627;SDS011;15815;46.760;19.604;2024-03-23T14:37:35;5.65;;;1.80;;
28627;SDS011;15815;46.760;19.604;2024-03-23T14:40:01;2.65;;;2.05;;
28627;SDS011;15815;46.760;19.604;2024-03-23T14:42:27;6.68;;;2.42;;
28627;SDS011;15815;46.760;19.604;2024-03-23T14:44:52;3.80;;;2.35;;
28627;SDS011;15815;46.760;19.604;2024-03-23T14:47:19;2.67;;;2.22;;
28627;SDS011;15815;46.760;19.604;2024-03-23T14:49:44;4.22;;;1.90;;
28627;SDS011;15815;46.760;19.604;2024-03-23T14:52:13;5.07;;;3.80;;
28627;SDS011;15815;46.760;19.604;2024-03-23T14:54:39;5.95;;;2.78;;
28627;SDS011;15815;46.760;19.604;2024-03-23T15:00:09;2.20;;;1.60;;
28627;SDS011;15815;46.760;19.604;2024-03-23T15:02:45;2.63;;;1.85;;
28627;SDS011;15815;46.760;19.604;2024-03-23T15:05:11;3.10;;;1.75;;
28627;SDS011;15815;46.760;19.604;2024-03-23T15:07:36;3.45;;;2.75;;
28627;SDS011;15815;46.760;19.604;2024-03-23T15:10:15;8.43;;;6.13;;
28627;SDS011;15815;46.760;19.604;2024-03-23T15:12:40;5.53;;;2.20;;
28627;SDS011;15815;46.760;19.604;2024-03-23T15:15:06;5.03;;;2.65;;
28627;SDS011;15815;46.760;19.604;2024-03-23T15:17:33;3.63;;;2.40;;
28627;SDS011;15815;46.760;19.604;2024-03-23T15:19:58;4.43;;;2.53;;
28627;SDS011;15815;46.760;19.604;2024-03-23T15:22:24;3.20;;;2.47;;
28627;SDS011;15815;46.760;19.604;2024-03-23T15:27:26;2.75;;;1.92;;
28627;SDS011;15815;46.760;19.604;2024-03-23T15:29:51;3.55;;;2.13;;
28627;SDS011;15815;46.760;19.604;2024-03-23T15:32:17;3.72;;;2.40;;
28627;SDS011;15815;46.760;19.604;2024-03-23T15:34:42;3.88;;;2.30;;
28627;SDS011;15815;46.760;19.604;2024-03-23T15:37:08;3.85;;;2.90;;
28627;SDS011;15815;46.760;19.604;2024-03-23T15:39:33;4.63;;;3.40;;
28627;SDS011;15815;46.760;19.604;2024-03-23T15:42:01;4.53;;;2.70;;
28627;SDS011;15815;46.760;19.604;2024-03-23T15:44:26;3.53;;;2.42;;
28627;SDS011;15815;46.760;19.604;2024-03-23T15:46:52;5.30;;;3.45;;
28627;SDS011;15815;46.760;19.604;2024-03-23T15:49:17;5.63;;;3.03;;
28627;SDS011;15815;46.760;19.604;2024-03-23T15:51:43;6.22;;;2.72;;
28627;SDS011;15815;46.760;19.604;2024-03-23T15:54:25;4.15;;;2.55;;
28627;SDS011;15815;46.760;19.604;2024-03-23T15:56:50;2.40;;;2.20;;
28627;SDS011;15815;46.760;19.604;2024-03-23T15:59:16;6.78;;;3.97;;
28627;SDS011;15815;46.760;19.604;2024-03-23T16:01:41;12.73;;;5.30;;
28627;SDS011;15815;46.760;19.604;2024-03-23T16:04:07;13.20;;;6.00;;
28627;SDS011;15815;46.760;19.604;2024-03-23T16:06:32;15.63;;;6.82;;
28627;SDS011;15815;46.760;19.604;2024-03-23T16:08:58;16.52;;;7.22;;
28627;SDS011;15815;46.760;19.604;2024-03-23T16:11:23;15.98;;;8.32;;
28627;SDS011;15815;46.760;19.604;2024-03-23T16:13:52;28.55;;;11.77;;
28627;SDS011;15815;46.760;19.604;2024-03-23T16:16:17;68.28;;;24.95;;
28627;SDS011;15815;46.760;19.604;2024-03-23T16:18:42;52.83;;;20.42;;
28627;SDS011;15815;46.760;19.604;2024-03-23T16:21:08;26.75;;;12.07;;
28627;SDS011;15815;46.760;19.604;2024-03-23T16:23:38;29.67;;;11.65;;
28627;SDS011;15815;46.760;19.604;2024-03-23T16:26:04;17.75;;;9.15;;
28627;SDS011;15815;46.760;19.604;2024-03-23T16:28:30;18.83;;;9.80;;
28627;SDS011;15815;46.760;19.604;2024-03-23T16:30:57;17.08;;;8.93;;
28627;SDS011;15815;46.760;19.604;2024-03-23T16:33:24;9.50;;;6.13;;